sensor_id;sensor_type;location;lat;lon;timestamp;pressure;altitude;pressure_sealevel;temperature;humidity
48774;BME280;34576;0.000;0.000;2023-04-06T00:00:23;96844.63;;;15.98;63.56
48774;BME280;34576;0.000;0.000;2023-04-06T00:07:23;96843.63;;;16.09;64.09
48774;BME280;34576;0.000;0.000;2023-04-06T00:14:24;96838.22;;;15.99;64.15
48774;BME280;34576;0.000;0.000;2023-04-06T00:21:24;96828.19;;;16.01;63.93
48774;BME280;34576;0.000;0.000;2023-04-06T00:28:25;96821.31;;;16.05;64.18
48774;BME280;34576;0.000;0.000;2023-04-06T00:35:26;96826.34;;;16.12;64.53
48774;BME280;34576;0.000;0.000;2023-04-06T00:42:26;96818.13;;;16.08;64.14
48774;BME280;34576;0.000;0.000;2023-04-06T00:49:27;96811.78;;;16.09;64.64
48774;BME280;34576;0.000;0.000;2023-04-06T00:56:27;96813.88;;;16.07;64.82
48774;BME280;34576;0.000;0.000;2023-04-06T01:03:28;96810.16;;;16.08;64.65
48774;BME280;34576;0.000;0.000;2023-04-06T01:10:28;96806.19;;;16.11;64.28
48774;BME280;34576;0.000;0.000;2023-04-06T01:17:35;96801.16;;;16.09;64.36
48774;BME280;34576;0.000;0.000;2023-04-06T01:24:43;96799.03;;;16.11;64.40
48774;BME280;34576;0.000;0.000;2023-04-06T01:32:04;96795.31;;;16.12;63.96
48774;BME280;34576;0.000;0.000;2023-04-06T01:39:09;96787.91;;;16.25;62.62
48774;BME280;34576;0.000;0.000;2023-04-06T01:46:12;96772.00;;;16.25;62.04
48774;BME280;34576;0.000;0.000;2023-04-06T01:53:15;96776.75;;;16.17;62.94
48774;BME280;34576;0.000;0.000;2023-04-06T02:00:18;96781.78;;;16.14;63.19
48774;BME280;34576;0.000;0.000;2023-04-06T02:07:25;96782.59;;;16.14;63.72
48774;BME280;34576;0.000;0.000;2023-04-06T02:14:26;96782.59;;;16.14;63.61
48774;BME280;34576;0.000;0.000;2023-04-06T02:21:29;96774.91;;;16.18;62.85
48774;BME280;34576;0.000;0.000;2023-04-06T02:28:29;96774.88;;;16.13;62.86
48774;BME280;34576;0.000;0.000;2023-04-06T02:35:30;96767.75;;;16.13;62.96
48774;BME280;34576;0.000;0.000;2023-04-06T02:42:31;96771.97;;;16.14;63.26
48774;BME280;34576;0.000;0.000;2023-04-06T02:49:33;96767.75;;;16.29;62.82
48774;BME280;34576;0.000;0.000;2023-04-06T02:56:34;96764.03;;;16.19;63.69
48774;BME280;34576;0.000;0.000;2023-04-06T03:03:34;96762.97;;;16.15;63.99
48774;BME280;34576;0.000;0.000;2023-04-06T03:10:36;96760.31;;;16.15;63.85
48774;BME280;34576;0.000;0.000;2023-04-06T03:17:37;96764.00;;;16.14;63.65
48774;BME280;34576;0.000;0.000;2023-04-06T03:24:42;96758.44;;;16.11;63.92
48774;BME280;34576;0.000;0.000;2023-04-06T03:31:42;96755.78;;;16.16;64.20
48774;BME280;34576;0.000;0.000;2023-04-06T03:39:09;96761.09;;;16.11;63.49
48774;BME280;34576;0.000;0.000;2023-04-06T03:46:14;96760.28;;;16.10;63.58
48774;BME280;34576;0.000;0.000;2023-04-06T03:53:14;96770.41;;;16.13;63.36
48774;BME280;34576;0.000;0.000;2023-04-06T04:00:15;96773.03;;;16.13;63.26
48774;BME280;34576;0.000;0.000;2023-04-06T04:07:15;96781.75;;;16.09;63.38
48774;BME280;34576;0.000;0.000;2023-04-06T04:14:16;96787.38;;;16.17;63.48
48774;BME280;34576;0.000;0.000;2023-04-06T04:21:16;96786.25;;;16.03;65.32
48774;BME280;34576;0.000;0.000;2023-04-06T04:28:17;96792.59;;;15.97;65.95
48774;BME280;34576;0.000;0.000;2023-04-06T04:35:18;96792.59;;;15.97;66.05
48774;BME280;34576;0.000;0.000;2023-04-06T04:42:19;96795.78;;;15.94;66.01
48774;BME280;34576;0.000;0.000;2023-04-06T04:49:24;96793.91;;;15.94;66.07
48774;BME280;34576;0.000;0.000;2023-04-06T04:56:25;96803.03;;;16.14;66.16
48774;BME280;34576;0.000;0.000;2023-04-06T05:03:33;96805.88;;;15.97;66.32
48774;BME280;34576;0.000;0.000;2023-04-06T05:10:39;96806.91;;;15.96;66.08
48774;BME280;34576;0.000;0.000;2023-04-06T05:17:41;96806.34;;;15.88;65.95
48774;BME280;34576;0.000;0.000;2023-04-06T05:24:44;96829.34;;;12.97;51.62
48774;BME280;34576;0.000;0.000;2023-04-06T05:31:44;96829.72;;;11.90;45.50
48774;BME280;34576;0.000;0.000;2023-04-06T05:38:45;96840.28;;;11.54;44.51
48774;BME280;34576;0.000;0.000;2023-04-06T05:46:23;96847.78;;;11.15;42.75
48774;BME280;34576;0.000;0.000;2023-04-06T05:53:25;96863.94;;;10.77;41.71
48774;BME280;34576;0.000;0.000;2023-04-06T06:00:30;96846.09;;;13.70;46.17
48774;BME280;34576;0.000;0.000;2023-04-06T06:07:37;96847.31;;;14.24;48.20
48774;BME280;34576;0.000;0.000;2023-04-06T06:14:37;96851.31;;;14.48;50.07
48774;BME280;34576;0.000;0.000;2023-04-06T06:21:38;96846.09;;;14.54;51.63
48774;BME280;34576;0.000;0.000;2023-04-06T06:28:40;96846.09;;;14.54;52.49
48774;BME280;34576;0.000;0.000;2023-04-06T06:35:40;96839.31;;;14.63;53.12
48774;BME280;34576;0.000;0.000;2023-04-06T06:42:41;96834.63;;;14.70;53.91
48774;BME280;34576;0.000;0.000;2023-04-06T06:50:00;96837.91;;;15.10;52.73
48774;BME280;34576;0.000;0.000;2023-04-06T06:57:00;96841.09;;;14.84;51.39
48774;BME280;34576;0.000;0.000;2023-04-06T07:04:01;96840.41;;;14.94;52.71
48774;BME280;34576;0.000;0.000;2023-04-06T07:11:01;96827.91;;;14.90;52.87
48774;BME280;34576;0.000;0.000;2023-04-06T07:18:02;96838.41;;;15.07;52.87
48774;BME280;34576;0.000;0.000;2023-04-06T07:25:02;96835.31;;;14.88;53.18
48774;BME280;34576;0.000;0.000;2023-04-06T07:32:03;96829.28;;;14.92;53.01
48774;BME280;34576;0.000;0.000;2023-04-06T07:39:04;96832.22;;;14.96;53.08
48774;BME280;34576;0.000;0.000;2023-04-06T07:46:04;96837.22;;;14.92;53.14
48774;BME280;34576;0.000;0.000;2023-04-06T07:53:05;96837.00;;;14.99;53.28
48774;BME280;34576;0.000;0.000;2023-04-06T08:00:06;96838.59;;;15.00;53.08
48774;BME280;34576;0.000;0.000;2023-04-06T08:07:12;96831.75;;;15.04;52.64
48774;BME280;34576;0.000;0.000;2023-04-06T08:14:12;96826.25;;;15.11;52.62
48774;BME280;34576;0.000;0.000;2023-04-06T08:21:12;96829.75;;;15.16;52.52
48774;BME280;34576;0.000;0.000;2023-04-06T08:28:13;96827.56;;;15.13;52.82
48774;BME280;34576;0.000;0.000;2023-04-06T08:35:13;96832.94;;;15.18;52.80
48774;BME280;34576;0.000;0.000;2023-04-06T08:42:16;96832.41;;;15.22;52.83
48774;BME280;34576;0.000;0.000;2023-04-06T08:49:19;96828.25;;;15.31;52.88
48774;BME280;34576;0.000;0.000;2023-04-06T08:56:19;96831.16;;;15.29;45.78
48774;BME280;34576;0.000;0.000;2023-04-06T09:03:20;96836.41;;;14.92;41.26
48774;BME280;34576;0.000;0.000;2023-04-06T09:10:21;96827.56;;;15.13;45.52
48774;BME280;34576;0.000;0.000;2023-04-06T09:17:27;96822.56;;;15.49;49.34
48774;BME280;34576;0.000;0.000;2023-04-06T09:24:28;96827.63;;;15.56;49.89
48774;BME280;34576;0.000;0.000;2023-04-06T09:31:38;96826.88;;;15.61;50.29
48774;BME280;34576;0.000;0.000;2023-04-06T09:38:50;96835.69;;;15.71;50.38
48774;BME280;34576;0.000;0.000;2023-04-06T09:45:50;96833.63;;;15.79;50.53
48774;BME280;34576;0.000;0.000;2023-04-06T09:52:51;96826.66;;;15.73;51.01
48774;BME280;34576;0.000;0.000;2023-04-06T10:00:04;96817.63;;;15.68;51.50
48774;BME280;34576;0.000;0.000;2023-04-06T10:07:09;96817.94;;;15.72;51.59
48774;BME280;34576;0.000;0.000;2023-04-06T10:14:12;96817.38;;;15.70;51.63
48774;BME280;34576;0.000;0.000;2023-04-06T10:21:14;96822.16;;;15.73;51.92
48774;BME280;34576;0.000;0.000;2023-04-06T10:28:16;96807.31;;;15.72;51.97
48774;BME280;34576;0.000;0.000;2023-04-06T10:35:19;96814.75;;;15.75;51.85
48774;BME280;34576;0.000;0.000;2023-04-06T10:42:23;96816.09;;;15.78;52.13
48774;BME280;34576;0.000;0.000;2023-04-06T10:49:27;96809.19;;;15.77;52.92
48774;BME280;34576;0.000;0.000;2023-04-06T10:56:27;96811.59;;;15.78;53.10
48774;BME280;34576;0.000;0.000;2023-04-06T11:03:29;96803.09;;;15.76;53.30
48774;BME280;34576;0.000;0.000;2023-04-06T11:10:31;96801.78;;;15.79;53.39
48774;BME280;34576;0.000;0.000;2023-04-06T11:17:32;96792.03;;;15.90;52.47
48774;BME280;34576;0.000;0.000;2023-04-06T11:24:33;96796.81;;;15.93;52.57
48774;BME280;34576;0.000;0.000;2023-04-06T11:31:37;96782.53;;;15.99;52.54
48774;BME280;34576;0.000;0.000;2023-04-06T11:38:38;96778.28;;;16.03;52.32
48774;BME280;34576;0.000;0.000;2023-04-06T11:45:41;96774.06;;;16.02;52.44
48774;BME280;34576;0.000;0.000;2023-04-06T11:52:42;96771.69;;;16.00;52.55
48774;BME280;34576;0.000;0.000;2023-04-06T11:59:42;96765.28;;;16.01;52.46
48774;BME280;34576;0.000;0.000;2023-04-06T12:06:42;96761.28;;;15.99;53.54
48774;BME280;34576;0.000;0.000;2023-04-06T12:13:43;96767.16;;;16.01;52.85
48774;BME280;34576;0.000;0.000;2023-04-06T12:20:43;96765.03;;;16.03;52.53
48774;BME280;34576;0.000;0.000;2023-04-06T12:27:44;96757.63;;;16.05;52.42
48774;BME280;34576;0.000;0.000;2023-04-06T12:34:45;96756.03;;;16.09;52.40
48774;BME280;34576;0.000;0.000;2023-04-06T12:41:45;96748.34;;;16.08;52.55
48774;BME280;34576;0.000;0.000;2023-04-06T12:48:45;96750.47;;;16.11;52.86
48774;BME280;34576;0.000;0.000;2023-04-06T12:55:46;96742.78;;;16.14;52.51
48774;BME280;34576;0.000;0.000;2023-04-06T13:02:46;96743.81;;;16.08;52.85
48774;BME280;34576;0.000;0.000;2023-04-06T13:09:47;96748.06;;;16.04;52.76
48774;BME280;34576;0.000;0.000;2023-04-06T13:16:49;96745.13;;;16.05;52.92
48774;BME280;34576;0.000;0.000;2023-04-06T13:23:49;96747.00;;;16.10;52.94
48774;BME280;34576;0.000;0.000;2023-04-06T13:30:50;96739.03;;;16.05;53.10
48774;BME280;34576;0.000;0.000;2023-04-06T13:37:50;96736.41;;;16.05;53.32
48774;BME280;34576;0.000;0.000;2023-04-06T13:44:52;96734.81;;;16.09;53.03
48774;BME280;34576;0.000;0.000;2023-04-06T13:51:53;96732.91;;;16.04;53.52
48774;BME280;34576;0.000;0.000;2023-04-06T13:58:54;96729.47;;;16.04;53.42
48774;BME280;34576;0.000;0.000;2023-04-06T14:05:55;96721.25;;;16.05;53.50
48774;BME280;34576;0.000;0.000;2023-04-06T14:12:56;96723.09;;;16.00;53.71
48774;BME280;34576;0.000;0.000;2023-04-06T14:19:56;96722.56;;;16.03;53.58
48774;BME280;34576;0.000;0.000;2023-04-06T14:26:57;96727.34;;;16.01;53.79
48774;BME280;34576;0.000;0.000;2023-04-06T14:33:58;96710.88;;;15.99;53.41
48774;BME280;34576;0.000;0.000;2023-04-06T14:40:58;96715.13;;;16.00;53.33
48774;BME280;34576;0.000;0.000;2023-04-06T14:47:59;96726.31;;;16.02;53.20
48774;BME280;34576;0.000;0.000;2023-04-06T14:54:59;96721.00;;;16.02;53.01
48774;BME280;34576;0.000;0.000;2023-04-06T15:02:00;96724.69;;;16.01;52.88
48774;BME280;34576;0.000;0.000;2023-04-06T15:09:01;96719.66;;;15.99;52.82
48774;BME280;34576;0.000;0.000;2023-04-06T15:16:02;96714.09;;;16.01;52.68
48774;BME280;34576;0.000;0.000;2023-04-06T15:23:03;96718.06;;;15.98;52.83
48774;BME280;34576;0.000;0.000;2023-04-06T15:30:03;96706.66;;;16.03;52.58
48774;BME280;34576;0.000;0.000;2023-04-06T15:37:04;96707.19;;;16.00;52.57
48774;BME280;34576;0.000;0.000;2023-04-06T15:44:05;96710.38;;;16.02;52.74
48774;BME280;34576;0.000;0.000;2023-04-06T15:51:05;96716.44;;;15.97;52.57
48774;BME280;34576;0.000;0.000;2023-04-06T15:58:06;96708.50;;;15.97;52.94
48774;BME280;34576;0.000;0.000;2023-04-06T16:05:07;96713.00;;;15.97;52.87
48774;BME280;34576;0.000;0.000;2023-04-06T16:12:07;96719.38;;;15.96;53.01
48774;BME280;34576;0.000;0.000;2023-04-06T16:19:09;96729.72;;;15.97;53.95
48774;BME280;34576;0.000;0.000;2023-04-06T16:26:13;96707.72;;;16.02;53.69
48774;BME280;34576;0.000;0.000;2023-04-06T16:33:13;96717.78;;;16.00;53.57
48774;BME280;34576;0.000;0.000;2023-04-06T16:40:17;96721.53;;;16.04;53.12
48774;BME280;34576;0.000;0.000;2023-04-06T16:47:17;96731.63;;;16.02;53.04
48774;BME280;34576;0.000;0.000;2023-04-06T16:54:18;96738.22;;;15.99;52.87
48774;BME280;34576;0.000;0.000;2023-04-06T17:01:18;96730.00;;;16.01;53.06
48774;BME280;34576;0.000;0.000;2023-04-06T17:08:19;96735.34;;;15.53;47.73
48774;BME280;34576;0.000;0.000;2023-04-06T17:15:20;96738.72;;;15.91;51.23
48774;BME280;34576;0.000;0.000;2023-04-06T17:22:20;96740.34;;;15.92;51.88
48774;BME280;34576;0.000;0.000;2023-04-06T17:29:21;96736.38;;;15.95;52.32
48774;BME280;34576;0.000;0.000;2023-04-06T17:36:21;96741.13;;;15.93;52.50
48774;BME280;34576;0.000;0.000;2023-04-06T17:43:22;96742.47;;;15.95;52.67
48774;BME280;34576;0.000;0.000;2023-04-06T17:50:23;96739.53;;;15.97;52.85
48774;BME280;34576;0.000;0.000;2023-04-06T17:57:24;96734.25;;;15.97;52.58
48774;BME280;34576;0.000;0.000;2023-04-06T18:04:24;96741.66;;;15.95;52.92
48774;BME280;34576;0.000;0.000;2023-04-06T18:11:24;96751.22;;;15.96;52.73
48774;BME280;34576;0.000;0.000;2023-04-06T18:18:29;96749.63;;;15.95;52.49
48774;BME280;34576;0.000;0.000;2023-04-06T18:25:30;96751.22;;;15.96;52.46
48774;BME280;34576;0.000;0.000;2023-04-06T18:32:30;96747.50;;;15.97;52.49
48774;BME280;34576;0.000;0.000;2023-04-06T18:39:30;96740.59;;;15.91;52.70
48774;BME280;34576;0.000;0.000;2023-04-06T18:46:31;96750.41;;;15.95;52.60
48774;BME280;34576;0.000;0.000;2023-04-06T18:53:31;96744.81;;;15.92;52.61
48774;BME280;34576;0.000;0.000;2023-04-06T19:00:32;96734.22;;;15.92;52.67
48774;BME280;34576;0.000;0.000;2023-04-06T19:07:33;96739.25;;;15.93;52.48
48774;BME280;34576;0.000;0.000;2023-04-06T19:14:34;96739.50;;;15.92;52.76
48774;BME280;34576;0.000;0.000;2023-04-06T19:21:34;96744.28;;;15.90;52.83
48774;BME280;34576;0.000;0.000;2023-04-06T19:28:35;96740.03;;;15.88;52.83
48774;BME280;34576;0.000;0.000;2023-04-06T19:35:35;96749.59;;;15.90;52.82
48774;BME280;34576;0.000;0.000;2023-04-06T19:42:36;96740.59;;;15.91;52.62
48774;BME280;34576;0.000;0.000;2023-04-06T19:49:37;96750.13;;;15.86;52.85
48774;BME280;34576;0.000;0.000;2023-04-06T19:56:39;96749.88;;;15.88;52.61
48774;BME280;34576;0.000;0.000;2023-04-06T20:03:40;96751.69;;;15.87;52.80
48774;BME280;34576;0.000;0.000;2023-04-06T20:10:40;96744.28;;;15.90;52.77
48774;BME280;34576;0.000;0.000;2023-04-06T20:17:41;96758.59;;;15.88;52.41
48774;BME280;34576;0.000;0.000;2023-04-06T20:24:44;96745.59;;;15.87;52.65
48774;BME280;34576;0.000;0.000;2023-04-06T20:31:44;96739.78;;;15.85;52.76
48774;BME280;34576;0.000;0.000;2023-04-06T20:38:45;96736.88;;;15.86;52.61
48774;BME280;34576;0.000;0.000;2023-04-06T20:45:46;96735.78;;;15.87;52.64
48774;BME280;34576;0.000;0.000;2023-04-06T20:52:47;96725.16;;;15.87;52.55
48774;BME280;34576;0.000;0.000;2023-04-06T20:59:48;96728.91;;;15.86;52.55
48774;BME280;34576;0.000;0.000;2023-04-06T21:06:49;96719.06;;;15.87;52.41
48774;BME280;34576;0.000;0.000;2023-04-06T21:13:49;96725.69;;;15.84;52.60
48774;BME280;34576;0.000;0.000;2023-04-06T21:20:51;96709.25;;;15.82;52.46
48774;BME280;34576;0.000;0.000;2023-04-06T21:27:51;96715.09;;;15.84;52.54
48774;BME280;34576;0.000;0.000;2023-04-06T21:34:51;96712.44;;;15.84;52.43
48774;BME280;34576;0.000;0.000;2023-04-06T21:41:52;96718.81;;;15.83;52.40
48774;BME280;34576;0.000;0.000;2023-04-06T21:48:52;96718.81;;;15.83;52.63
48774;BME280;34576;0.000;0.000;2023-04-06T21:55:52;96712.69;;;15.83;52.58
48774;BME280;34576;0.000;0.000;2023-04-06T22:02:52;96711.91;;;15.82;52.65
48774;BME280;34576;0.000;0.000;2023-04-06T22:09:53;96715.09;;;15.84;52.59
48774;BME280;34576;0.000;0.000;2023-04-06T22:16:53;96703.41;;;15.80;52.69
48774;BME280;34576;0.000;0.000;2023-04-06T22:23:53;96704.22;;;15.81;52.87
48774;BME280;34576;0.000;0.000;2023-04-06T22:30:54;96696.53;;;15.84;52.58
48774;BME280;34576;0.000;0.000;2023-04-06T22:37:54;96692.56;;;15.82;52.84
48774;BME280;34576;0.000;0.000;2023-04-06T22:44:55;96682.44;;;15.79;52.68
48774;BME280;34576;0.000;0.000;2023-04-06T22:51:56;96676.88;;;15.80;52.85
48774;BME280;34576;0.000;0.000;2023-04-06T22:58:56;96673.19;;;15.81;52.62
48774;BME280;34576;0.000;0.000;2023-04-06T23:05:56;96667.09;;;15.81;52.60
48774;BME280;34576;0.000;0.000;2023-04-06T23:12:57;96655.09;;;15.78;52.86
48774;BME280;34576;0.000;0.000;2023-04-06T23:19:57;96659.88;;;15.76;52.74
48774;BME280;34576;0.000;0.000;2023-04-06T23:26:58;96643.72;;;15.78;52.74
48774;BME280;34576;0.000;0.000;2023-04-06T23:33:58;96643.16;;;15.76;52.96
48774;BME280;34576;0.000;0.000;2023-04-06T23:40:58;96642.66;;;15.79;52.73
48774;BME280;34576;0.000;0.000;2023-04-06T23:47:59;96642.91;;;15.77;52.80
48774;BME280;34576;0.000;0.000;2023-04-06T23:54:59;96639.16;;;15.73;52.88
